Time;durP1;ratioP1;P1;durP2;ratioP2;P2;SDS_P1;SDS_P2;PMS_P1;PMS_P2;Temp;Humidity;BMP_temperature;BMP_pressure;BME280_temperature;BME280_humidity;BME280_pressure;Samples;Min_cycle;Max_cycle;Signal;HPM_P1;HPM_P2
2022/08/10 00:00:52;;;;;;;5.32;3.80;;;;;;;;;;5026043;28;20033;-56
2022/08/10 00:03:18;;;;;;;4.70;3.53;;;;;;;;;;5026016;28;20372;-56
2022/08/10 00:05:43;;;;;;;4.68;3.30;;;;;;;;;;5027103;28;20021;-57
2022/08/10 00:08:08;;;;;;;6.07;3.78;;;;;;;;;;5025215;28;20068;-57
2022/08/10 00:10:34;;;;;;;4.60;3.40;;;;;;;;;;5025957;28;20029;-57
2022/08/10 00:12:59;;;;;;;4.45;3.42;;;;;;;;;;5026501;28;20088;-57
2022/08/10 00:15:25;;;;;;;5.28;3.60;;;;;;;;;;5029292;28;20498;-56
2022/08/10 00:17:51;;;;;;;3.92;3.53;;;;;;;;;;5026630;28;20491;-57
2022/08/10 00:20:16;;;;;;;3.53;3.20;;;;;;;;;;5029297;28;20040;-57
2022/08/10 00:22:42;;;;;;;5.57;3.63;;;;;;;;;;5027293;28;20395;-57
2022/08/10 00:25:07;;;;;;;3.88;3.45;;;;;;;;;;5027630;28;20029;-56
2022/08/10 00:27:33;;;;;;;4.45;3.92;;;;;;;;;;5027361;28;20025;-57
2022/08/10 00:29:59;;;;;;;5.32;3.60;;;;;;;;;;5027280;28;20033;-57
2022/08/10 00:32:24;;;;;;;4.80;3.60;;;;;;;;;;5028753;28;20104;-57
2022/08/10 00:34:50;;;;;;;6.80;3.83;;;;;;;;;;5028060;28;20392;-57
2022/08/10 00:37:17;;;;;;;7.35;3.53;;;;;;;;;;5028618;28;20018;-56
2022/08/10 00:39:42;;;;;;;4.32;3.60;;;;;;;;;;5027999;28;20488;-56
2022/08/10 00:42:10;;;;;;;3.70;3.35;;;;;;;;;;5027640;28;20028;-57
2022/08/10 00:44:37;;;;;;;5.20;3.65;;;;;;;;;;5021113;28;20021;-56
2022/08/10 00:47:03;;;;;;;8.82;3.70;;;;;;;;;;5028761;28;20386;-57
2022/08/10 00:49:29;;;;;;;4.78;3.85;;;;;;;;;;5027767;28;20025;-57
2022/08/10 00:51:54;;;;;;;5.05;3.65;;;;;;;;;;5027712;28;20059;-56
2022/08/10 00:54:20;;;;;;;5.03;3.95;;;;;;;;;;5029285;28;20029;-57
2022/08/10 00:56:45;;;;;;;4.82;4.10;;;;;;;;;;5029129;28;20026;-57
2022/08/10 00:59:11;;;;;;;5.97;3.80;;;;;;;;;;5027503;28;20053;-57
2022/08/10 01:01:37;;;;;;;5.93;4.03;;;;;;;;;;5027472;28;20025;-57
2022/08/10 01:04:03;;;;;;;7.38;4.15;;;;;;;;;;5028888;28;20029;-57
2022/08/10 01:06:37;;;;;;;4.30;3.90;;;;;;;;;;5029705;28;20414;-56
2022/08/10 01:09:19;;;;;;;5.43;3.83;;;;;;;;;;5031900;28;20040;-56
2022/08/10 01:12:08;;;;;;;4.53;4.10;;;;;;;;;;5031639;28;20026;-56
2022/08/10 01:14:40;;;;;;;5.82;4.07;;;;;;;;;;5032562;28;20486;-57
2022/08/10 01:17:12;;;;;;;6.00;4.07;;;;;;;;;;5030749;28;20045;-57
2022/08/10 01:19:56;;;;;;;8.32;4.35;;;;;;;;;;5031556;28;20044;-57
2022/08/10 01:22:30;;;;;;;5.03;4.15;;;;;;;;;;5031044;28;20025;-57
2022/08/10 01:25:20;;;;;;;4.75;4.00;;;;;;;;;;5031772;28;20664;-57
2022/08/10 01:28:02;;;;;;;5.68;3.90;;;;;;;;;;5028231;28;20243;-57
2022/08/10 01:30:31;;;;;;;5.22;3.53;;;;;;;;;;5029369;28;20034;-56
2022/08/10 01:33:10;;;;;;;5.75;3.85;;;;;;;;;;5028921;28;20116;-57
2022/08/10 01:35:35;;;;;;;;;;;;;;;;;;5029713;28;20433;-57
2022/08/10 01:38:01;;;;;;;4.27;3.87;;;;;;;;;;5028964;28;19920;-56
2022/08/10 01:40:30;;;;;;;7.32;4.07;;;;;;;;;;5031379;28;20657;-57
2022/08/10 01:42:56;;;;;;;;;;;;;;;;;;5030538;28;20029;-56
2022/08/10 01:45:23;;;;;;;5.10;3.85;;;;;;;;;;5030634;28;19912;-56
2022/08/10 01:50:49;;;;;;;5.07;4.18;;;;;;;;;;5030682;28;20097;-56
2022/08/10 01:53:24;;;;;;;5.50;4.18;;;;;;;;;;5029730;28;20033;-56
2022/08/10 01:55:53;;;;;;;4.47;4.07;;;;;;;;;;5030777;28;20032;-56
2022/08/10 01:58:21;;;;;;;4.65;4.07;;;;;;;;;;5028217;28;20445;-56
2022/08/10 02:00:50;;;;;;;5.47;4.15;;;;;;;;;;5030369;28;20292;-57
2022/08/10 02:03:18;;;;;;;6.93;3.90;;;;;;;;;;5030343;28;20029;-57
2022/08/10 02:05:46;;;;;;;4.65;4.13;;;;;;;;;;5031045;28;20048;-56
2022/08/10 02:08:15;;;;;;;4.72;4.13;;;;;;;;;;5028211;28;20033;-56
2022/08/10 02:10:44;;;;;;;8.30;4.10;;;;;;;;;;5030336;28;20022;-56
2022/08/10 02:13:10;;;;;;;9.10;4.38;;;;;;;;;;5028975;28;20549;-57
2022/08/10 02:15:39;;;;;;;5.88;4.25;;;;;;;;;;5029048;28;20064;-56
2022/08/10 02:18:05;;;;;;;5.70;4.55;;;;;;;;;;5029430;28;20073;-57
2022/08/10 02:20:35;;;;;;;6.70;4.35;;;;;;;;;;5029444;28;20086;-57
2022/08/10 02:23:08;;;;;;;8.45;4.45;;;;;;;;;;5029468;28;20026;-57
2022/08/10 02:25:34;;;;;;;5.88;4.45;;;;;;;;;;5030039;28;20041;-56
2022/08/10 02:28:02;;;;;;;5.13;4.35;;;;;;;;;;5030611;28;20503;-57
2022/08/10 02:30:29;;;;;;;9.52;4.78;;;;;;;;;;5028858;28;20502;-57
2022/08/10 02:32:57;;;;;;;5.43;4.43;;;;;;;;;;5029089;28;20041;-57
2022/08/10 02:35:23;;;;;;;8.98;4.30;;;;;;;;;;5030604;28;20029;-56
2022/08/10 02:37:51;;;;;;;4.82;4.35;;;;;;;;;;5028180;28;20037;-56
2022/08/10 02:40:18;;;;;;;8.68;4.57;;;;;;;;;;5029932;28;20402;-57
2022/08/10 02:43:02;;;;;;;4.78;4.18;;;;;;;;;;5029422;28;20494;-56
2022/08/10 02:45:40;;;;;;;6.43;4.53;;;;;;;;;;5028533;28;20108;-56
2022/08/10 02:48:14;;;;;;;5.38;4.30;;;;;;;;;;5027573;28;20033;-57
2022/08/10 02:50:42;;;;;;;5.80;4.25;;;;;;;;;;5026872;28;20080;-57
2022/08/10 02:53:40;;;;;;;5.22;4.55;;;;;;;;;;5026969;28;20099;-56
2022/08/10 02:56:10;;;;;;;4.68;4.18;;;;;;;;;;5017025;28;20069;-56
2022/08/10 02:58:43;;;;;;;6.60;4.72;;;;;;;;;;5028622;28;20021;-56
2022/08/10 03:01:12;;;;;;;4.50;4.10;;;;;;;;;;5026187;28;20036;-57
2022/08/10 03:03:47;;;;;;;6.47;4.68;;;;;;;;;;5030112;28;20548;-56
2022/08/10 03:06:17;;;;;;;6.35;4.95;;;;;;;;;;5029052;28;20037;-56
2022/08/10 03:08:44;;;;;;;4.72;4.32;;;;;;;;;;5029273;28;20048;-56
2022/08/10 03:11:23;;;;;;;7.15;4.57;;;;;;;;;;5029060;28;20109;-57
2022/08/10 03:13:51;;;;;;;5.95;4.63;;;;;;;;;;5029755;28;20032;-56
2022/08/10 03:16:18;;;;;;;6.70;4.97;;;;;;;;;;5028510;28;20037;-57
2022/08/10 03:18:46;;;;;;;8.32;4.60;;;;;;;;;;5027436;28;20041;-57
2022/08/10 03:21:14;;;;;;;5.93;4.68;;;;;;;;;;5029259;28;20437;-56
2022/08/10 03:23:41;;;;;;;5.15;4.65;;;;;;;;;;5028471;28;20061;-56
2022/08/10 03:26:08;;;;;;;7.88;5.05;;;;;;;;;;5029761;28;20040;-56
2022/08/10 03:28:35;;;;;;;5.32;4.53;;;;;;;;;;5026582;28;20029;-57
2022/08/10 03:31:01;;;;;;;5.05;4.60;;;;;;;;;;5029190;28;20021;-56
2022/08/10 03:33:31;;;;;;;5.75;4.60;;;;;;;;;;5029091;28;20037;-56
2022/08/10 03:35:57;;;;;;;6.15;4.57;;;;;;;;;;5029762;28;20029;-57
2022/08/10 03:38:22;;;;;;;4.85;4.45;;;;;;;;;;5027966;28;20056;-56
2022/08/10 03:40:49;;;;;;;6.55;4.75;;;;;;;;;;5028756;28;20029;-56
2022/08/10 03:43:21;;;;;;;7.15;4.80;;;;;;;;;;5028806;28;20033;-57
2022/08/10 03:45:50;;;;;;;5.53;4.70;;;;;;;;;;5029213;28;20021;-57
2022/08/10 03:48:18;;;;;;;5.07;4.57;;;;;;;;;;5027425;28;20124;-56
2022/08/10 03:50:44;;;;;;;6.13;4.65;;;;;;;;;;5028188;28;20484;-56
2022/08/10 03:53:09;;;;;;;6.30;4.65;;;;;;;;;;5028548;28;20411;-57
2022/08/10 03:55:35;;;;;;;5.53;4.90;;;;;;;;;;5029505;28;20021;-56
2022/08/10 03:58:02;;;;;;;7.47;4.88;;;;;;;;;;5027748;28;20021;-56
2022/08/10 04:00:33;;;;;;;5.68;4.93;;;;;;;;;;5028811;28;20065;-56
2022/08/10 04:03:08;;;;;;;5.10;4.60;;;;;;;;;;5028560;28;20571;-56
2022/08/10 04:05:34;;;;;;;5.25;4.68;;;;;;;;;;5029359;28;20443;-56
2022/08/10 04:08:01;;;;;;;8.00;4.50;;;;;;;;;;5028039;28;20080;-56
2022/08/10 04:10:28;;;;;;;5.15;4.28;;;;;;;;;;5028882;28;20034;-56
2022/08/10 04:12:54;;;;;;;4.75;3.97;;;;;;;;;;5028542;28;20116;-56
2022/08/10 04:15:19;;;;;;;5.22;4.18;;;;;;;;;;5028496;28;20096;-57
2022/08/10 04:17:45;;;;;;;5.28;4.30;;;;;;;;;;5025858;28;20448;-57
2022/08/10 04:20:14;;;;;;;4.78;4.03;;;;;;;;;;5025287;28;20021;-57
2022/08/10 04:22:42;;;;;;;6.07;4.22;;;;;;;;;;5025781;28;20037;-56
2022/08/10 04:25:11;;;;;;;6.78;4.43;;;;;;;;;;5026275;28;20033;-57
2022/08/10 04:27:36;;;;;;;8.68;4.90;;;;;;;;;;5026496;28;20056;-56
2022/08/10 04:30:02;;;;;;;4.80;4.28;;;;;;;;;;5027523;28;20041;-56
2022/08/10 04:32:30;;;;;;;6.47;4.72;;;;;;;;;;5024873;28;20574;-58
2022/08/10 04:34:57;;;;;;;10.27;6.72;;;;;;;;;;5027002;28;20106;-56
2022/08/10 04:37:24;;;;;;;7.32;5.00;;;;;;;;;;5027040;28;20033;-56
2022/08/10 04:39:50;;;;;;;6.80;4.68;;;;;;;;;;5026531;28;20025;-57
2022/08/10 04:42:15;;;;;;;7.00;4.88;;;;;;;;;;5029514;28;20467;-56
2022/08/10 04:44:42;;;;;;;6.93;5.22;;;;;;;;;;5031577;28;20025;-56
2022/08/10 04:47:07;;;;;;;8.05;6.30;;;;;;;;;;5031081;28;20227;-56
2022/08/10 04:49:33;;;;;;;7.20;5.28;;;;;;;;;;5029790;28;20045;-56
2022/08/10 04:51:58;;;;;;;7.93;5.10;;;;;;;;;;5031836;28;20021;-56
2022/08/10 04:54:24;;;;;;;6.07;5.25;;;;;;;;;;5031816;28;20033;-56
2022/08/10 04:56:50;;;;;;;6.13;4.53;;;;;;;;;;5032467;28;20080;-56
2022/08/10 04:59:15;;;;;;;8.80;4.32;;;;;;;;;;5030801;28;20021;-56
2022/08/10 05:01:41;;;;;;;6.15;4.43;;;;;;;;;;5030998;28;20057;-56
2022/08/10 05:04:06;;;;;;;5.72;4.65;;;;;;;;;;5030344;28;20025;-57
2022/08/10 05:06:32;;;;;;;7.82;4.55;;;;;;;;;;5031621;28;20027;-57
2022/08/10 05:08:58;;;;;;;7.95;4.30;;;;;;;;;;5029070;28;20030;-58
2022/08/10 05:11:23;;;;;;;9.20;4.43;;;;;;;;;;5032058;28;20025;-57
2022/08/10 05:13:49;;;;;;;5.85;3.90;;;;;;;;;;5031450;28;20129;-58
2022/08/10 05:16:14;;;;;;;10.10;5.30;;;;;;;;;;5030271;28;20029;-59
2022/08/10 05:18:40;;;;;;;6.60;4.25;;;;;;;;;;5029412;28;20032;-58
2022/08/10 05:21:05;;;;;;;13.93;4.70;;;;;;;;;;5031311;28;20043;-58
2022/08/10 05:23:31;;;;;;;6.93;4.30;;;;;;;;;;5031173;28;20057;-57
2022/08/10 05:25:56;;;;;;;7.28;4.30;;;;;;;;;;5031619;28;20022;-58
2022/08/10 05:28:21;;;;;;;8.18;4.32;;;;;;;;;;5029655;28;20072;-58
2022/08/10 05:30:47;;;;;;;5.93;4.38;;;;;;;;;;5022565;28;20033;-58
2022/08/10 05:33:12;;;;;;;7.60;4.03;;;;;;;;;;5029542;28;20068;-57
2022/08/10 05:35:38;;;;;;;5.70;3.95;;;;;;;;;;5029458;28;20358;-58
2022/08/10 05:38:06;;;;;;;8.18;4.25;;;;;;;;;;5029586;28;20072;-57
2022/08/10 05:40:34;;;;;;;7.28;4.07;;;;;;;;;;5023547;28;20538;-58
2022/08/10 05:42:59;;;;;;;6.20;3.92;;;;;;;;;;5019169;28;20033;-58
2022/08/10 05:45:26;;;;;;;10.73;4.00;;;;;;;;;;5024269;28;20033;-58
2022/08/10 05:47:52;;;;;;;11.27;3.83;;;;;;;;;;5025825;28;20024;-52
2022/08/10 05:50:21;;;;;;;6.43;3.70;;;;;;;;;;5022366;28;20326;-56
2022/08/10 05:52:46;;;;;;;8.00;4.30;;;;;;;;;;5029247;28;20028;-58
2022/08/10 05:55:12;;;;;;;5.90;3.92;;;;;;;;;;5029386;28;20033;-58
2022/08/10 05:57:37;;;;;;;6.35;4.38;;;;;;;;;;5026471;28;20025;-58
2022/08/10 06:00:08;;;;;;;4.32;3.53;;;;;;;;;;5026809;28;20025;-58
2022/08/10 06:02:37;;;;;;;6.63;4.30;;;;;;;;;;5028598;28;20534;-58
2022/08/10 06:05:07;;;;;;;4.65;4.10;;;;;;;;;;5027388;28;20040;-58
2022/08/10 06:07:37;;;;;;;4.40;3.70;;;;;;;;;;5026973;28;20026;-58
2022/08/10 06:10:04;;;;;;;6.63;4.13;;;;;;;;;;5026534;28;20620;-58
2022/08/10 06:12:32;;;;;;;5.18;3.78;;;;;;;;;;5025816;28;20491;-58
2022/08/10 06:15:02;;;;;;;7.20;4.10;;;;;;;;;;5025657;28;20033;-58
2022/08/10 06:17:29;;;;;;;8.35;4.43;;;;;;;;;;5029751;28;20037;-58
2022/08/10 06:19:58;;;;;;;9.23;4.68;;;;;;;;;;5024005;28;20026;-58
2022/08/10 06:22:31;;;;;;;6.38;4.55;;;;;;;;;;5029906;28;20254;-58
2022/08/10 06:25:02;;;;;;;8.15;5.07;;;;;;;;;;5021664;28;20101;-58
2022/08/10 06:27:28;;;;;;;7.03;4.28;;;;;;;;;;5030012;28;20033;-58
2022/08/10 06:29:55;;;;;;;8.40;4.65;;;;;;;;;;5025550;28;20365;-58
2022/08/10 06:32:24;;;;;;;6.75;4.63;;;;;;;;;;5022435;28;20121;-58
2022/08/10 06:34:54;;;;;;;6.97;4.05;;;;;;;;;;5023758;28;20025;-58
2022/08/10 06:37:25;;;;;;;5.10;4.28;;;;;;;;;;5025353;28;20031;-57
2022/08/10 06:39:51;;;;;;;5.85;4.35;;;;;;;;;;5026606;28;20021;-57
2022/08/10 06:42:31;;;;;;;6.93;4.30;;;;;;;;;;5027595;28;20029;-56
2022/08/10 06:45:06;;;;;;;5.63;4.35;;;;;;;;;;5028501;28;20021;-57
2022/08/10 06:47:45;;;;;;;6.65;4.10;;;;;;;;;;5021666;28;20097;-57
2022/08/10 06:50:34;;;;;;;7.00;5.07;;;;;;;;;;5023935;28;20395;-57
2022/08/10 06:53:01;;;;;;;5.38;4.38;;;;;;;;;;5028979;28;20403;-57
2022/08/10 06:55:28;;;;;;;5.22;4.28;;;;;;;;;;5027369;28;20030;-57
2022/08/10 06:57:55;;;;;;;5.28;3.85;;;;;;;;;;5026826;28;20052;-57
2022/08/10 07:00:25;;;;;;;5.90;3.85;;;;;;;;;;5027622;28;20506;-57
2022/08/10 07:03:05;;;;;;;6.53;3.47;;;;;;;;;;5025175;28;20428;-57
2022/08/10 07:05:37;;;;;;;6.43;4.30;;;;;;;;;;5026717;28;20018;-57
2022/08/10 07:08:03;;;;;;;9.70;4.22;;;;;;;;;;5026267;28;20083;-57
2022/08/10 07:10:30;;;;;;;9.55;3.92;;;;;;;;;;5024392;28;20033;-58
2022/08/10 07:12:58;;;;;;;4.78;3.50;;;;;;;;;;5024590;28;20021;-58
2022/08/10 07:15:24;;;;;;;5.47;3.47;;;;;;;;;;5024042;28;20045;-57
2022/08/10 07:17:51;;;;;;;8.00;3.40;;;;;;;;;;5024391;28;20494;-58
2022/08/10 07:20:19;;;;;;;4.20;3.10;;;;;;;;;;5024912;28;20083;-58
2022/08/10 07:22:48;;;;;;;8.63;3.78;;;;;;;;;;5024582;28;20061;-58
2022/08/10 07:25:25;;;;;;;5.97;3.50;;;;;;;;;;5023219;28;20037;-58
2022/08/10 07:27:53;;;;;;;4.55;3.22;;;;;;;;;;5020887;28;20037;-58
2022/08/10 07:30:18;;;;;;;5.20;3.60;;;;;;;;;;5026683;28;20601;-58
2022/08/10 07:32:48;;;;;;;5.00;3.20;;;;;;;;;;5019996;28;20029;-58
2022/08/10 07:35:16;;;;;;;12.90;5.07;;;;;;;;;;5019832;28;20566;-58
2022/08/10 07:37:45;;;;;;;6.75;3.60;;;;;;;;;;5021629;28;20029;-58
2022/08/10 07:40:13;;;;;;;8.90;3.58;;;;;;;;;;5020997;28;20037;-58
2022/08/10 07:42:41;;;;;;;7.80;3.35;;;;;;;;;;5017523;28;20021;-58
2022/08/10 07:45:07;;;;;;;7.95;3.30;;;;;;;;;;5016296;28;20045;-58
2022/08/10 07:47:45;;;;;;;11.07;3.83;;;;;;;;;;5025116;28;20029;-58
2022/08/10 07:50:13;;;;;;;7.83;3.30;;;;;;;;;;5027594;28;20035;-58
2022/08/10 07:52:39;;;;;;;8.60;3.25;;;;;;;;;;5027284;28;20384;-58
2022/08/10 07:55:14;;;;;;;10.18;3.45;;;;;;;;;;5026592;28;20570;-58
2022/08/10 07:57:42;;;;;;;4.47;3.40;;;;;;;;;;5027142;28;20483;-58
2022/08/10 08:00:10;;;;;;;4.22;3.20;;;;;;;;;;5025540;28;20029;-58
2022/08/10 08:02:45;;;;;;;8.15;3.70;;;;;;;;;;5024024;28;20037;-58
2022/08/10 08:05:12;;;;;;;6.03;3.30;;;;;;;;;;5026531;28;20052;-58
2022/08/10 08:07:39;;;;;;;7.35;3.13;;;;;;;;;;5025093;28;20029;-58
2022/08/10 08:10:07;;;;;;;5.68;3.20;;;;;;;;;;5022728;28;20025;-58
2022/08/10 08:12:34;;;;;;;11.48;2.90;;;;;;;;;;5023850;28;20409;-58
2022/08/10 08:15:00;;;;;;;4.68;2.97;;;;;;;;;;5026235;28;20029;-58
2022/08/10 08:17:26;;;;;;;9.10;2.88;;;;;;;;;;5031273;28;20383;-58
2022/08/10 08:19:54;;;;;;;9.35;3.10;;;;;;;;;;5032240;28;20024;-58
2022/08/10 08:22:21;;;;;;;6.35;2.97;;;;;;;;;;5032934;28;20037;-58
2022/08/10 08:24:49;;;;;;;6.75;3.10;;;;;;;;;;5030178;28;20029;-58
2022/08/10 08:27:18;;;;;;;5.95;2.70;;;;;;;;;;5029383;28;20025;-58
2022/08/10 08:29:44;;;;;;;;;;;;;;;;;;5026406;28;20086;-58
2022/08/10 08:32:11;;;;;;;6.35;2.70;;;;;;;;;;5030369;28;19974;-58
2022/08/10 08:34:38;;;;;;;4.97;2.53;;;;;;;;;;5027594;28;20028;-58
2022/08/10 08:37:05;;;;;;;5.30;3.10;;;;;;;;;;5027642;28;20052;-58
2022/08/10 08:39:32;;;;;;;5.45;2.95;;;;;;;;;;5023725;28;20013;-58
2022/08/10 08:42:32;;;;;;;6.78;3.72;;;;;;;;;;5030307;28;20029;-58
2022/08/10 08:45:22;;;;;;;7.15;4.45;;;;;;;;;;5002991;28;20396;-58
2022/08/10 08:48:18;;;;;;;7.43;3.10;;;;;;;;;;5024797;28;20094;-58
2022/08/10 08:51:04;;;;;;;6.30;2.95;;;;;;;;;;5029820;28;20040;-59
2022/08/10 08:54:11;;;;;;;3.80;2.78;;;;;;;;;;5033374;28;20083;-58
2022/08/10 08:57:10;;;;;;;4.22;2.88;;;;;;;;;;5017723;28;20053;-58
2022/08/10 08:59:41;;;;;;;8.77;3.08;;;;;;;;;;5027999;28;20029;-58
2022/08/10 09:02:28;;;;;;;5.85;3.50;;;;;;;;;;5031946;28;20049;-58
2022/08/10 09:04:59;;;;;;;5.53;2.80;;;;;;;;;;5029944;28;20462;-58
2022/08/10 09:07:47;;;;;;;4.50;2.67;;;;;;;;;;5030067;28;20033;-58
2022/08/10 09:10:41;;;;;;;4.15;2.70;;;;;;;;;;5030500;28;20044;-58
2022/08/10 09:13:25;;;;;;;2.67;2.42;;;;;;;;;;5026190;28;20180;-58
2022/08/10 09:16:23;;;;;;;6.32;2.50;;;;;;;;;;5027683;28;20060;-58
2022/08/10 09:18:54;;;;;;;4.72;2.47;;;;;;;;;;5009024;28;20488;-58
2022/08/10 09:21:53;;;;;;;3.65;2.63;;;;;;;;;;5026037;28;20061;-58
2022/08/10 09:24:47;;;;;;;6.15;2.53;;;;;;;;;;5033543;28;20476;-58
2022/08/10 09:27:21;;;;;;;6.55;2.70;;;;;;;;;;5021221;28;20167;-58
2022/08/10 09:29:55;;;;;;;5.10;2.70;;;;;;;;;;5025388;28;20100;-58
2022/08/10 09:32:25;;;;;;;4.78;2.78;;;;;;;;;;5021854;28;20053;-58
2022/08/10 09:35:02;;;;;;;3.22;2.28;;;;;;;;;;5024816;28;20029;-58
2022/08/10 09:37:40;;;;;;;3.75;2.88;;;;;;;;;;5028934;28;20025;-58
2022/08/10 09:40:16;;;;;;;4.00;2.60;;;;;;;;;;5019983;28;20040;-58
2022/08/10 09:42:55;;;;;;;4.32;2.40;;;;;;;;;;5017931;28;20034;-58
2022/08/10 09:45:26;;;;;;;4.60;2.42;;;;;;;;;;5019665;28;20026;-58
2022/08/10 09:48:11;;;;;;;3.05;2.20;;;;;;;;;;5029745;28;20487;-58
2022/08/10 09:51:01;;;;;;;5.35;2.67;;;;;;;;;;5022230;28;20026;-58
2022/08/10 09:53:45;;;;;;;4.30;2.70;;;;;;;;;;5028396;28;20033;-58
2022/08/10 09:56:31;;;;;;;4.32;2.40;;;;;;;;;;5027117;28;20099;-58
2022/08/10 09:59:05;;;;;;;3.60;2.72;;;;;;;;;;5028569;28;20033;-58
2022/08/10 10:01:39;;;;;;;3.33;2.30;;;;;;;;;;5027773;28;20510;-58
2022/08/10 10:04:51;;;;;;;4.25;3.10;;;;;;;;;;5026746;28;20087;-58
2022/08/10 10:07:26;;;;;;;5.20;2.50;;;;;;;;;;4987186;28;20049;-59
2022/08/10 10:10:03;;;;;;;3.80;2.33;;;;;;;;;;5017125;28;20029;-58
2022/08/10 10:13:01;;;;;;;5.18;2.47;;;;;;;;;;5024913;28;20561;-58
2022/08/10 10:15:45;;;;;;;3.72;2.22;;;;;;;;;;5024857;28;20048;-58
2022/08/10 10:18:33;;;;;;;2.83;2.60;;;;;;;;;;5024318;28;20112;-58
2022/08/10 10:20:59;;;;;;;5.55;2.20;;;;;;;;;;5026234;28;20080;-58
2022/08/10 10:24:06;;;;;;;4.07;2.47;;;;;;;;;;5025179;28;20017;-58
2022/08/10 10:27:00;;;;;;;3.50;2.17;;;;;;;;;;5024607;28;20021;-58
2022/08/10 10:30:04;;;;;;;8.38;2.45;;;;;;;;;;5016194;28;20037;-58
2022/08/10 10:32:51;;;;;;;4.13;1.83;;;;;;;;;;5021609;28;20424;-58
2022/08/10 10:35:31;;;;;;;7.57;1.95;;;;;;;;;;5025570;28;20095;-59
2022/08/10 10:37:58;;;;;;;3.03;1.90;;;;;;;;;;5023939;28;20025;-58
2022/08/10 10:40:27;;;;;;;5.30;2.10;;;;;;;;;;5022746;28;20032;-59
2022/08/10 10:43:21;;;;;;;3.28;1.88;;;;;;;;;;5028857;28;20021;-58
2022/08/10 10:46:03;;;;;;;3.85;2.22;;;;;;;;;;5021899;28;20479;-58
2022/08/10 10:49:11;;;;;;;4.82;2.13;;;;;;;;;;5027784;28;20051;-58
2022/08/10 10:51:58;;;;;;;6.80;2.20;;;;;;;;;;5023893;28;20029;-59
2022/08/10 10:54:46;;;;;;;4.32;2.10;;;;;;;;;;5028220;28;20310;-55
2022/08/10 10:57:29;;;;;;;3.78;1.90;;;;;;;;;;5025824;28;20154;-55
2022/08/10 10:59:57;;;;;;;2.33;1.88;;;;;;;;;;5027497;28;20039;-55
2022/08/10 11:02:50;;;;;;;2.92;1.88;;;;;;;;;;5027580;28;20116;-55
2022/08/10 11:05:37;;;;;;;11.23;6.65;;;;;;;;;;5022525;28;20105;-55
2022/08/10 11:08:18;;;;;;;2.35;2.00;;;;;;;;;;5023249;28;20537;-55
2022/08/10 11:10:53;;;;;;;7.03;2.33;;;;;;;;;;5023328;28;20101;-56
2022/08/10 11:13:33;;;;;;;10.40;2.10;;;;;;;;;;5021535;28;20124;-55
2022/08/10 11:16:12;;;;;;;3.85;2.35;;;;;;;;;;5026719;28;20570;-55
2022/08/10 11:19:23;;;;;;;3.67;2.17;;;;;;;;;;5021326;28;20052;-55
2022/08/10 11:21:49;;;;;;;2.38;2.00;;;;;;;;;;5017604;28;20438;-55
2022/08/10 11:24:43;;;;;;;3.78;2.05;;;;;;;;;;5021983;28;20032;-55
2022/08/10 11:27:18;;;;;;;5.57;2.00;;;;;;;;;;5018461;28;20036;-55
2022/08/10 11:29:43;;;;;;;4.18;2.20;;;;;;;;;;5016945;28;20030;-55
2022/08/10 11:32:16;;;;;;;2.25;1.90;;;;;;;;;;5020016;28;20055;-55
2022/08/10 11:35:04;;;;;;;4.80;2.30;;;;;;;;;;5017387;28;20022;-55
2022/08/10 11:37:56;;;;;;;5.57;1.90;;;;;;;;;;5019197;28;20033;-58
2022/08/10 11:40:32;;;;;;;7.43;2.08;;;;;;;;;;5022755;28;20040;-58
2022/08/10 11:43:21;;;;;;;4.10;1.80;;;;;;;;;;5019942;28;20021;-58
2022/08/10 11:46:18;;;;;;;3.60;2.03;;;;;;;;;;5023297;28;20426;-58
2022/08/10 11:48:55;;;;;;;2.05;1.63;;;;;;;;;;5019766;28;20078;-58
2022/08/10 11:51:33;;;;;;;6.03;3.03;;;;;;;;;;5026268;28;20030;-59
2022/08/10 11:54:09;;;;;;;2.72;2.00;;;;;;;;;;5025728;28;20028;-59
2022/08/10 11:56:48;;;;;;;2.63;1.73;;;;;;;;;;5027364;28;20030;-59
2022/08/10 12:02:03;;;;;;;7.22;2.25;;;;;;;;;;5024228;28;20557;-58
2022/08/10 12:04:30;;;;;;;2.70;2.10;;;;;;;;;;5025248;28;20033;-58
2022/08/10 12:06:57;;;;;;;5.88;1.83;;;;;;;;;;5025494;28;20017;-59
2022/08/10 12:09:24;;;;;;;3.58;2.20;;;;;;;;;;5021572;28;20053;-59
2022/08/10 12:11:49;;;;;;;6.68;2.05;;;;;;;;;;5021357;28;20403;-58
2022/08/10 12:14:29;;;;;;;3.33;2.33;;;;;;;;;;5026679;28;20021;-59
2022/08/10 12:17:36;;;;;;;4.55;2.80;;;;;;;;;;5023643;28;20025;-59
2022/08/10 12:20:12;;;;;;;2.67;1.90;;;;;;;;;;5003310;28;20057;-59
2022/08/10 12:23:01;;;;;;;4.63;2.00;;;;;;;;;;5014678;28;20034;-59
2022/08/10 12:25:29;;;;;;;2.17;1.98;;;;;;;;;;5022511;28;20041;-59
2022/08/10 12:28:01;;;;;;;4.45;1.98;;;;;;;;;;5020791;28;20022;-59
2022/08/10 12:30:32;;;;;;;6.20;4.40;;;;;;;;;;5020446;28;20141;-58
2022/08/10 12:33:06;;;;;;;2.35;2.15;;;;;;;;;;5025605;28;20057;-59
2022/08/10 12:35:36;;;;;;;2.33;2.10;;;;;;;;;;5018010;28;20087;-59
2022/08/10 12:38:02;;;;;;;2.85;2.10;;;;;;;;;;5017592;28;20026;-59
2022/08/10 12:40:30;;;;;;;3.88;2.20;;;;;;;;;;5022346;28;20040;-59
2022/08/10 12:43:08;;;;;;;7.60;2.67;;;;;;;;;;5026252;28;20022;-59
2022/08/10 12:45:42;;;;;;;2.70;2.22;;;;;;;;;;5017784;28;20487;-59
2022/08/10 12:48:19;;;;;;;3.40;2.40;;;;;;;;;;5024940;28;20082;-59
2022/08/10 12:51:00;;;;;;;4.05;2.30;;;;;;;;;;5026529;28;20055;-59
2022/08/10 12:53:32;;;;;;;2.60;2.10;;;;;;;;;;5025444;28;20080;-59
2022/08/10 12:56:00;;;;;;;3.05;2.05;;;;;;;;;;5024862;28;20025;-59
2022/08/10 12:58:27;;;;;;;5.25;2.20;;;;;;;;;;5024142;28;20022;-59
2022/08/10 13:00:55;;;;;;;3.65;2.50;;;;;;;;;;5023422;28;20038;-59
2022/08/10 13:03:24;;;;;;;2.78;2.25;;;;;;;;;;5026159;28;20183;-59
2022/08/10 13:05:50;;;;;;;;;;;;;;;;;;5028431;28;20488;-59
2022/08/10 13:11:05;;;;;;;5.47;2.15;;;;;;;;;;5028735;28;20048;-59
2022/08/10 13:13:36;;;;;;;3.33;1.98;;;;;;;;;;5029083;28;20032;-59
2022/08/10 13:16:04;;;;;;;4.05;2.42;;;;;;;;;;5026572;28;20041;-59
2022/08/10 13:18:42;;;;;;;2.83;1.97;;;;;;;;;;5026296;28;20036;-59
2022/08/10 13:21:10;;;;;;;3.13;1.98;;;;;;;;;;5021665;28;20927;-59
2022/08/10 13:23:41;;;;;;;2.13;1.92;;;;;;;;;;5022175;28;20377;-59
2022/08/10 13:26:13;;;;;;;4.80;2.20;;;;;;;;;;5025354;28;20033;-59
2022/08/10 13:28:52;;;;;;;3.60;2.10;;;;;;;;;;5026789;28;20029;-59
2022/08/10 13:31:21;;;;;;;4.68;2.33;;;;;;;;;;5026933;28;20033;-59
2022/08/10 13:33:52;;;;;;;5.38;2.20;;;;;;;;;;5028392;28;20032;-59
2022/08/10 13:36:24;;;;;;;8.05;2.25;;;;;;;;;;5022257;28;20056;-59
2022/08/10 13:38:54;;;;;;;4.25;2.55;;;;;;;;;;5022666;28;20037;-59
2022/08/10 13:41:20;;;;;;;3.35;2.20;;;;;;;;;;5020244;28;20479;-59
2022/08/10 13:43:54;;;;;;;3.20;2.00;;;;;;;;;;5029436;28;20022;-59
2022/08/10 13:46:22;;;;;;;2.13;1.80;;;;;;;;;;5026648;28;20126;-59
2022/08/10 13:48:48;;;;;;;2.90;2.10;;;;;;;;;;5029483;28;20117;-59
2022/08/10 13:51:15;;;;;;;2.22;1.88;;;;;;;;;;5024793;28;20041;-59
2022/08/10 13:53:42;;;;;;;5.20;2.08;;;;;;;;;;5028266;28;20564;-59
2022/08/10 13:56:10;;;;;;;4.85;1.90;;;;;;;;;;5025711;28;20042;-59
2022/08/10 13:58:39;;;;;;;4.03;1.75;;;;;;;;;;5020862;28;20021;-59
2022/08/10 14:01:12;;;;;;;2.28;1.63;;;;;;;;;;5026756;28;20029;-59
2022/08/10 14:03:41;;;;;;;9.25;1.85;;;;;;;;;;5026022;28;20021;-59
2022/08/10 14:06:11;;;;;;;3.55;1.80;;;;;;;;;;5024652;28;20105;-59
2022/08/10 14:08:40;;;;;;;3.45;1.75;;;;;;;;;;5024790;28;20475;-59
2022/08/10 14:11:11;;;;;;;2.92;1.65;;;;;;;;;;5025689;28;20034;-59
2022/08/10 14:13:42;;;;;;;2.47;1.83;;;;;;;;;;5024639;28;20037;-59
2022/08/10 14:16:09;;;;;;;10.57;2.05;;;;;;;;;;5022556;28;20607;-59
2022/08/10 14:18:35;;;;;;;3.85;1.80;;;;;;;;;;5021855;28;20033;-59
2022/08/10 14:21:01;;;;;;;4.07;1.73;;;;;;;;;;5023303;28;20025;-59
2022/08/10 14:23:27;;;;;;;3.58;1.73;;;;;;;;;;5024699;28;20025;-59
2022/08/10 14:26:00;;;;;;;7.25;1.90;;;;;;;;;;5020970;28;20025;-59
2022/08/10 14:28:32;;;;;;;2.92;1.60;;;;;;;;;;5025871;28;20025;-59
2022/08/10 14:31:03;;;;;;;3.95;1.73;;;;;;;;;;5023294;28;20029;-63
2022/08/10 14:33:31;;;;;;;2.85;1.70;;;;;;;;;;5019877;28;20526;-59
2022/08/10 14:35:57;;;;;;;3.45;1.92;;;;;;;;;;5018104;28;20034;-59
2022/08/10 14:38:26;;;;;;;3.22;1.73;;;;;;;;;;5019109;28;20034;-59
2022/08/10 14:40:55;;;;;;;2.88;1.80;;;;;;;;;;5020447;28;20407;-59
2022/08/10 14:43:27;;;;;;;1.80;1.60;;;;;;;;;;5026259;28;20488;-59
2022/08/10 14:46:02;;;;;;;3.15;1.95;;;;;;;;;;5028015;28;20505;-59
2022/08/10 14:48:31;;;;;;;3.05;1.63;;;;;;;;;;5024483;28;20030;-59
2022/08/10 14:50:58;;;;;;;8.13;2.10;;;;;;;;;;5023020;28;20029;-59
2022/08/10 14:53:30;;;;;;;3.35;1.88;;;;;;;;;;5026387;28;20026;-59
2022/08/10 14:56:00;;;;;;;3.13;1.73;;;;;;;;;;5028275;28;20163;-59
2022/08/10 14:58:34;;;;;;;2.50;2.08;;;;;;;;;;5025579;28;20518;-59
2022/08/10 15:01:02;;;;;;;5.68;1.80;;;;;;;;;;5023512;28;20032;-59
2022/08/10 15:03:31;;;;;;;2.83;1.70;;;;;;;;;;5025511;28;20392;-59
2022/08/10 15:05:58;;;;;;;2.85;1.90;;;;;;;;;;5023569;28;20025;-59
2022/08/10 15:08:26;;;;;;;3.72;2.10;;;;;;;;;;5025519;28;20033;-59
2022/08/10 15:10:59;;;;;;;4.43;2.08;;;;;;;;;;5023383;28;20032;-59
2022/08/10 15:13:26;;;;;;;4.63;1.67;;;;;;;;;;5023212;28;20526;-59
2022/08/10 15:15:59;;;;;;;4.50;1.90;;;;;;;;;;5021478;28;20123;-59
2022/08/10 15:18:28;;;;;;;5.18;2.00;;;;;;;;;;5025550;28;20442;-60
2022/08/10 15:20:57;;;;;;;5.00;1.80;;;;;;;;;;5029059;28;20029;-59